Time;durP1;ratioP1;P1;durP2;ratioP2;P2;SDS_P1;SDS_P2;PMS_P1;PMS_P2;Temp;Humidity;BMP_temperature;BMP_pressure;BME280_temperature;BME280_humidity;BME280_pressure;Samples;Min_cycle;Max_cycle;Signal;HPM_P1;HPM_P2
2021/07/18 00:01:42;;;;;;;4.50;2.70;;;;;;;;;;5046921;28;20036;-72
2021/07/18 00:04:08;;;;;;;4.37;2.87;;;;;;;;;;5035411;28;20068;-71
2021/07/18 00:06:34;;;;;;;5.80;2.60;;;;;;;;;;5043570;28;20032;-72
2021/07/18 00:09:01;;;;;;;8.57;3.03;;;;;;;;;;5048889;28;20472;-71
2021/07/18 00:11:27;;;;;;;8.52;2.88;;;;;;;;;;5046863;28;20059;-72
2021/07/18 00:13:53;;;;;;;7.28;3.08;;;;;;;;;;5040677;28;20512;-71
2021/07/18 00:16:20;;;;;;;7.20;2.63;;;;;;;;;;5040721;28;20013;-71
2021/07/18 00:18:46;;;;;;;3.78;2.70;;;;;;;;;;5027805;28;20642;-72
2021/07/18 00:21:12;;;;;;;6.05;2.63;;;;;;;;;;5028526;28;20047;-73
2021/07/18 00:23:38;;;;;;;5.55;2.80;;;;;;;;;;5027595;28;20014;-71
2021/07/18 00:26:05;;;;;;;4.25;2.55;;;;;;;;;;5028642;28;20031;-72
2021/07/18 00:28:31;;;;;;;6.93;3.45;;;;;;;;;;5028649;28;20056;-71
2021/07/18 00:30:57;;;;;;;4.80;3.08;;;;;;;;;;5028487;28;20025;-71
2021/07/18 00:33:24;;;;;;;5.32;3.08;;;;;;;;;;5026681;28;20033;-72
2021/07/18 00:35:50;;;;;;;5.40;2.92;;;;;;;;;;5028612;28;20036;-72
2021/07/18 00:38:16;;;;;;;4.68;2.70;;;;;;;;;;5028629;28;20025;-71
2021/07/18 00:40:42;;;;;;;15.93;3.25;;;;;;;;;;5028072;28;20037;-71
2021/07/18 00:43:09;;;;;;;6.45;2.72;;;;;;;;;;5029015;28;20021;-72
2021/07/18 00:45:35;;;;;;;5.13;2.70;;;;;;;;;;5027481;28;20030;-72
2021/07/18 00:48:01;;;;;;;4.63;2.70;;;;;;;;;;5026643;28;20591;-71
2021/07/18 00:50:28;;;;;;;4.93;2.40;;;;;;;;;;5023443;28;20037;-71
2021/07/18 00:52:54;;;;;;;4.88;2.92;;;;;;;;;;5028466;28;20551;-70
2021/07/18 00:55:21;;;;;;;5.47;3.15;;;;;;;;;;5028636;28;20193;-71
2021/07/18 00:57:48;;;;;;;4.05;2.58;;;;;;;;;;5027484;28;20524;-71
2021/07/18 01:00:15;;;;;;;8.07;3.00;;;;;;;;;;5028300;28;20049;-71
2021/07/18 01:02:42;;;;;;;4.38;2.50;;;;;;;;;;5026498;28;20482;-72
2021/07/18 01:05:10;;;;;;;5.55;3.00;;;;;;;;;;5027759;28;20539;-71
2021/07/18 01:07:36;;;;;;;5.47;2.83;;;;;;;;;;5027603;28;20112;-72
2021/07/18 01:10:04;;;;;;;5.50;2.58;;;;;;;;;;5027840;28;20033;-72
2021/07/18 01:12:30;;;;;;;4.38;2.65;;;;;;;;;;5026230;28;20553;-72
2021/07/18 01:14:56;;;;;;;5.15;2.35;;;;;;;;;;5027899;28;20033;-72
2021/07/18 01:17:23;;;;;;;3.13;2.83;;;;;;;;;;5026869;28;20106;-72
2021/07/18 01:19:49;;;;;;;4.45;2.60;;;;;;;;;;5026239;28;20087;-72
2021/07/18 01:22:15;;;;;;;7.30;2.90;;;;;;;;;;5027770;28;20045;-72
2021/07/18 01:24:41;;;;;;;6.55;2.80;;;;;;;;;;5027309;28;20036;-71
2021/07/18 01:27:07;;;;;;;7.50;2.65;;;;;;;;;;5027525;28;20028;-72
2021/07/18 01:29:34;;;;;;;4.40;2.60;;;;;;;;;;5027469;28;20025;-71
2021/07/18 01:32:01;;;;;;;6.00;2.47;;;;;;;;;;5027495;28;20037;-72
2021/07/18 01:34:27;;;;;;;4.40;3.05;;;;;;;;;;5025831;28;20052;-72
2021/07/18 01:36:54;;;;;;;20.80;3.67;;;;;;;;;;5027554;28;20029;-72
2021/07/18 01:39:20;;;;;;;4.30;2.83;;;;;;;;;;5027333;28;20462;-72
2021/07/18 01:41:49;;;;;;;25.80;5.05;;;;;;;;;;5026695;28;20389;-72
2021/07/18 01:44:15;;;;;;;10.88;2.78;;;;;;;;;;5026036;28;20025;-71
2021/07/18 01:46:41;;;;;;;15.10;3.58;;;;;;;;;;5027012;28;20516;-71
2021/07/18 01:49:08;;;;;;;10.00;3.28;;;;;;;;;;5027405;28;20028;-71
2021/07/18 01:51:35;;;;;;;16.48;3.75;;;;;;;;;;5027126;28;20606;-71
2021/07/18 01:54:01;;;;;;;8.27;2.20;;;;;;;;;;5026690;28;20022;-71
2021/07/18 01:56:28;;;;;;;6.30;2.05;;;;;;;;;;5025161;28;20053;-72
2021/07/18 01:58:55;;;;;;;12.52;2.47;;;;;;;;;;5027016;28;20022;-71
2021/07/18 02:01:25;;;;;;;7.65;1.90;;;;;;;;;;5026762;28;20029;-72
2021/07/18 02:03:51;;;;;;;8.18;2.10;;;;;;;;;;5026858;28;20448;-71
2021/07/18 02:06:20;;;;;;;9.25;2.53;;;;;;;;;;5027194;28;20044;-72
2021/07/18 02:08:46;;;;;;;4.28;1.55;;;;;;;;;;5025031;28;20026;-71
2021/07/18 02:11:14;;;;;;;7.15;2.55;;;;;;;;;;5026706;28;20035;-72
2021/07/18 02:13:40;;;;;;;9.70;3.42;;;;;;;;;;5026556;28;20021;-72
2021/07/18 02:16:06;;;;;;;18.33;4.22;;;;;;;;;;5026571;28;20119;-71
2021/07/18 02:18:32;;;;;;;14.85;4.43;;;;;;;;;;5025926;28;20420;-72
2021/07/18 02:20:59;;;;;;;5.75;2.00;;;;;;;;;;5025300;28;20124;-71
2021/07/18 02:23:25;;;;;;;10.50;3.63;;;;;;;;;;5026756;28;20466;-72
2021/07/18 02:25:51;;;;;;;11.55;3.78;;;;;;;;;;5026464;28;20113;-72
2021/07/18 02:28:17;;;;;;;7.05;3.17;;;;;;;;;;5025947;28;20074;-72
2021/07/18 02:30:44;;;;;;;8.77;3.25;;;;;;;;;;5026749;28;20025;-72
2021/07/18 02:33:10;;;;;;;8.20;3.03;;;;;;;;;;5024943;28;20017;-72
2021/07/18 02:35:36;;;;;;;10.02;2.92;;;;;;;;;;5026392;28;20535;-71
2021/07/18 02:38:02;;;;;;;9.52;2.47;;;;;;;;;;5025796;28;20032;-71
2021/07/18 02:40:28;;;;;;;5.13;2.53;;;;;;;;;;5026286;28;20095;-72
2021/07/18 02:42:55;;;;;;;4.40;2.40;;;;;;;;;;5026303;28;20033;-71
2021/07/18 02:45:23;;;;;;;4.60;2.40;;;;;;;;;;5023538;28;20022;-72
2021/07/18 02:47:49;;;;;;;6.20;2.78;;;;;;;;;;5026213;28;20064;-72
2021/07/18 02:50:17;;;;;;;6.78;3.10;;;;;;;;;;5026305;28;20026;-72
2021/07/18 02:52:44;;;;;;;6.38;2.78;;;;;;;;;;5026499;28;20025;-72
2021/07/18 02:55:10;;;;;;;8.18;3.42;;;;;;;;;;5024827;28;20030;-72
2021/07/18 02:57:36;;;;;;;7.18;3.22;;;;;;;;;;5026181;28;20030;-71
2021/07/18 03:00:09;;;;;;;12.80;4.20;;;;;;;;;;5026228;28;20487;-70
2021/07/18 03:02:35;;;;;;;9.77;3.50;;;;;;;;;;5017288;28;20021;-71
2021/07/18 03:05:02;;;;;;;10.55;3.53;;;;;;;;;;5019012;28;20106;-71
2021/07/18 03:07:28;;;;;;;18.48;4.03;;;;;;;;;;5019824;28;20573;-71
2021/07/18 03:09:54;;;;;;;8.63;3.88;;;;;;;;;;5025383;28;20025;-71
2021/07/18 03:12:21;;;;;;;22.40;4.53;;;;;;;;;;5025339;28;20060;-71
2021/07/18 03:14:47;;;;;;;6.30;3.38;;;;;;;;;;5025241;28;20032;-71
2021/07/18 03:17:13;;;;;;;7.38;3.30;;;;;;;;;;5023060;28;20517;-71
2021/07/18 03:19:39;;;;;;;10.35;4.65;;;;;;;;;;5025500;28;20036;-71
2021/07/18 03:22:05;;;;;;;12.43;5.20;;;;;;;;;;5025604;28;20018;-71
2021/07/18 03:24:31;;;;;;;9.55;4.15;;;;;;;;;;5024703;28;20591;-71
2021/07/18 03:26:58;;;;;;;9.18;3.10;;;;;;;;;;5024006;28;20030;-71
2021/07/18 03:29:25;;;;;;;7.00;2.88;;;;;;;;;;5020223;28;20029;-72
2021/07/18 03:31:51;;;;;;;6.45;3.50;;;;;;;;;;5023556;28;20091;-71
2021/07/18 03:34:17;;;;;;;9.45;3.90;;;;;;;;;;5024424;28;20401;-71
2021/07/18 03:36:43;;;;;;;15.23;5.00;;;;;;;;;;5024501;28;20068;-71
2021/07/18 03:39:09;;;;;;;14.07;5.72;;;;;;;;;;5024851;28;20489;-71
2021/07/18 03:41:35;;;;;;;11.27;4.72;;;;;;;;;;5022876;28;20052;-71
2021/07/18 03:44:02;;;;;;;19.63;6.22;;;;;;;;;;5024677;28;20109;-71
2021/07/18 03:46:28;;;;;;;18.70;6.10;;;;;;;;;;5024276;28;20031;-71
2021/07/18 03:48:54;;;;;;;18.25;6.40;;;;;;;;;;5023471;28;20032;-71
2021/07/18 03:51:20;;;;;;;15.70;5.90;;;;;;;;;;5024542;28;20059;-71
2021/07/18 03:53:46;;;;;;;13.73;5.90;;;;;;;;;;5022621;28;20105;-72
2021/07/18 03:56:12;;;;;;;13.32;6.05;;;;;;;;;;5024548;28;20030;-71
2021/07/18 03:58:38;;;;;;;16.50;6.47;;;;;;;;;;5023870;28;20480;-71
2021/07/18 04:01:11;;;;;;;17.20;5.70;;;;;;;;;;5024356;28;20219;-71
2021/07/18 04:03:38;;;;;;;19.38;6.00;;;;;;;;;;5024210;28;20129;-71
2021/07/18 04:06:04;;;;;;;14.27;6.25;;;;;;;;;;5024675;28;20036;-71
2021/07/18 04:08:31;;;;;;;23.52;6.80;;;;;;;;;;5021985;28;20025;-71
2021/07/18 04:10:57;;;;;;;25.95;7.20;;;;;;;;;;5023528;28;20612;-71
2021/07/18 04:13:23;;;;;;;21.92;6.90;;;;;;;;;;5023947;28;20085;-71
2021/07/18 04:15:50;;;;;;;28.17;7.03;;;;;;;;;;5023450;28;20037;-71
2021/07/18 04:18:16;;;;;;;19.00;7.55;;;;;;;;;;5023382;28;20124;-71
2021/07/18 04:20:42;;;;;;;26.85;6.93;;;;;;;;;;5020702;28;20508;-71
2021/07/18 04:23:10;;;;;;;18.55;6.28;;;;;;;;;;5023617;28;20492;-71
2021/07/18 04:25:37;;;;;;;12.13;5.45;;;;;;;;;;5023747;28;20075;-71
2021/07/18 04:28:03;;;;;;;15.93;5.13;;;;;;;;;;5023503;28;20149;-71
2021/07/18 04:30:29;;;;;;;17.33;6.05;;;;;;;;;;5023534;28;20090;-71
2021/07/18 04:32:55;;;;;;;15.00;5.45;;;;;;;;;;5022177;28;20497;-71
2021/07/18 04:35:22;;;;;;;15.40;5.70;;;;;;;;;;5023749;28;20067;-71
2021/07/18 04:37:48;;;;;;;18.90;6.97;;;;;;;;;;5023815;28;20033;-71
2021/07/18 04:40:14;;;;;;;14.70;6.03;;;;;;;;;;5023624;28;20042;-72
2021/07/18 04:42:41;;;;;;;20.50;6.32;;;;;;;;;;5022063;28;20032;-71
2021/07/18 04:45:08;;;;;;;20.45;6.47;;;;;;;;;;5023335;28;20026;-71
2021/07/18 04:47:42;;;;;;;14.90;6.50;;;;;;;;;;5023352;28;20491;-71
2021/07/18 04:50:09;;;;;;;14.18;5.55;;;;;;;;;;5021855;28;20030;-70
2021/07/18 04:52:35;;;;;;;13.48;5.60;;;;;;;;;;5023393;28;20025;-70
2021/07/18 04:55:01;;;;;;;16.80;6.22;;;;;;;;;;5022410;28;20033;-69
2021/07/18 04:57:27;;;;;;;18.55;6.78;;;;;;;;;;5023140;28;20172;-70
2021/07/18 04:59:53;;;;;;;15.43;6.05;;;;;;;;;;5022876;28;20045;-70
2021/07/18 05:02:19;;;;;;;18.67;6.43;;;;;;;;;;5021501;28;20017;-69
2021/07/18 05:04:46;;;;;;;24.52;6.85;;;;;;;;;;5023024;28;20021;-70
2021/07/18 05:07:12;;;;;;;18.25;6.53;;;;;;;;;;5022502;28;20037;-70
2021/07/18 05:09:38;;;;;;;21.10;6.97;;;;;;;;;;5022820;28;20025;-71
2021/07/18 05:12:04;;;;;;;21.52;6.95;;;;;;;;;;5023164;28;20037;-71
2021/07/18 05:14:30;;;;;;;23.90;7.20;;;;;;;;;;5020851;28;20098;-72
2021/07/18 05:16:57;;;;;;;19.25;7.63;;;;;;;;;;5021013;28;20462;-72
2021/07/18 05:19:23;;;;;;;15.35;5.97;;;;;;;;;;5022474;28;20195;-72
2021/07/18 05:21:49;;;;;;;18.55;6.30;;;;;;;;;;5022775;28;20045;-70
2021/07/18 05:24:15;;;;;;;15.48;6.40;;;;;;;;;;5022275;28;20034;-70
2021/07/18 05:26:41;;;;;;;15.45;6.30;;;;;;;;;;5021319;28;20053;-70
2021/07/18 05:29:07;;;;;;;13.25;6.13;;;;;;;;;;5023294;28;20052;-70
2021/07/18 05:31:34;;;;;;;14.25;6.45;;;;;;;;;;5022946;28;20037;-71
2021/07/18 05:34:00;;;;;;;22.90;7.05;;;;;;;;;;5022806;28;20117;-70
2021/07/18 05:36:26;;;;;;;20.48;7.32;;;;;;;;;;5021635;28;20035;-72
2021/07/18 05:38:52;;;;;;;23.92;7.32;;;;;;;;;;5021693;28;20430;-70
2021/07/18 05:41:18;;;;;;;14.18;6.65;;;;;;;;;;5022672;28;20037;-71
2021/07/18 05:43:44;;;;;;;19.98;6.53;;;;;;;;;;5022552;28;20039;-72
2021/07/18 05:46:10;;;;;;;15.25;5.78;;;;;;;;;;5022890;28;20026;-72
2021/07/18 05:48:38;;;;;;;20.38;6.25;;;;;;;;;;5021013;28;20029;-71
2021/07/18 05:51:04;;;;;;;14.40;5.53;;;;;;;;;;5022619;28;20104;-72
2021/07/18 05:53:30;;;;;;;14.18;5.28;;;;;;;;;;5022548;28;20067;-72
2021/07/18 05:55:56;;;;;;;17.20;6.30;;;;;;;;;;5022295;28;20036;-72
2021/07/18 05:58:22;;;;;;;13.50;6.03;;;;;;;;;;5022436;28;20036;-71
2021/07/18 06:00:48;;;;;;;12.27;5.32;;;;;;;;;;5022274;28;20037;-72
2021/07/18 06:03:15;;;;;;;13.23;5.95;;;;;;;;;;5019751;28;20026;-72
2021/07/18 06:05:41;;;;;;;12.65;3.95;;;;;;;;;;5022182;28;20060;-75
2021/07/18 06:08:07;;;;;;;12.15;5.03;;;;;;;;;;5021593;28;20056;-75
2021/07/18 06:10:33;;;;;;;12.05;5.50;;;;;;;;;;5021921;28;20036;-75
2021/07/18 06:13:00;;;;;;;12.30;4.63;;;;;;;;;;5020571;28;20562;-74
2021/07/18 06:15:26;;;;;;;9.48;4.68;;;;;;;;;;5020699;28;20037;-75
2021/07/18 06:17:52;;;;;;;10.57;4.10;;;;;;;;;;5021317;28;20060;-75
2021/07/18 06:20:19;;;;;;;12.05;5.05;;;;;;;;;;5021480;28;20045;-75
2021/07/18 06:22:46;;;;;;;12.30;3.92;;;;;;;;;;5021978;28;20048;-76
2021/07/18 06:25:12;;;;;;;12.70;3.90;;;;;;;;;;5021377;28;20021;-73
2021/07/18 06:27:41;;;;;;;9.85;4.22;;;;;;;;;;5020103;28;20032;-73
2021/07/18 06:30:08;;;;;;;10.48;4.28;;;;;;;;;;5021535;28;20616;-74
2021/07/18 06:32:34;;;;;;;7.13;3.40;;;;;;;;;;5021784;28;20067;-76
2021/07/18 06:35:00;;;;;;;7.75;3.55;;;;;;;;;;5021381;28;20505;-76
2021/07/18 06:37:26;;;;;;;6.95;3.67;;;;;;;;;;5021397;28;20029;-72
2021/07/18 06:39:53;;;;;;;6.07;3.10;;;;;;;;;;5021175;28;20118;-75
2021/07/18 06:42:20;;;;;;;6.20;3.63;;;;;;;;;;5019520;28;20026;-75
2021/07/18 06:44:46;;;;;;;6.10;3.33;;;;;;;;;;5021463;28;20029;-73
2021/07/18 06:47:12;;;;;;;7.10;3.40;;;;;;;;;;5021473;28;20068;-73
2021/07/18 06:49:39;;;;;;;7.78;3.70;;;;;;;;;;5013525;28;20033;-73
2021/07/18 06:52:05;;;;;;;5.97;3.17;;;;;;;;;;5021414;28;20025;-75
2021/07/18 06:54:31;;;;;;;11.07;3.70;;;;;;;;;;5020029;28;20038;-74
2021/07/18 06:56:57;;;;;;;7.43;3.67;;;;;;;;;;5021063;28;20026;-74
2021/07/18 06:59:23;;;;;;;6.07;3.30;;;;;;;;;;5021030;28;20585;-74
2021/07/18 07:01:50;;;;;;;7.35;3.55;;;;;;;;;;5021436;28;20037;-75
2021/07/18 07:04:16;;;;;;;6.97;3.40;;;;;;;;;;5021296;28;20034;-75
2021/07/18 07:06:42;;;;;;;11.10;3.80;;;;;;;;;;5021046;28;20033;-73
2021/07/18 07:09:08;;;;;;;6.20;3.17;;;;;;;;;;5011991;28;20022;-73
2021/07/18 07:11:34;;;;;;;12.25;3.70;;;;;;;;;;5020699;28;20417;-73
2021/07/18 07:14:00;;;;;;;8.20;3.08;;;;;;;;;;5020885;28;20017;-74
2021/07/18 07:16:26;;;;;;;5.68;2.88;;;;;;;;;;5021083;28;20094;-74
2021/07/18 07:18:53;;;;;;;7.10;3.00;;;;;;;;;;5008380;28;20077;-75
2021/07/18 07:21:19;;;;;;;6.68;2.97;;;;;;;;;;5014711;28;20030;-74
2021/07/18 07:23:45;;;;;;;5.30;2.90;;;;;;;;;;5012850;28;20021;-75
2021/07/18 07:26:11;;;;;;;10.60;3.08;;;;;;;;;;5011311;28;20132;-73
2021/07/18 07:28:37;;;;;;;6.72;2.80;;;;;;;;;;5009967;28;20022;-73
2021/07/18 07:31:04;;;;;;;6.07;2.78;;;;;;;;;;5009601;28;20065;-75
2021/07/18 07:33:33;;;;;;;5.93;2.85;;;;;;;;;;5008724;28;20037;-72
2021/07/18 07:35:59;;;;;;;8.15;3.28;;;;;;;;;;5015651;28;20128;-74
2021/07/18 07:38:25;;;;;;;9.02;3.05;;;;;;;;;;5008271;28;20058;-75
2021/07/18 07:40:51;;;;;;;6.07;3.30;;;;;;;;;;5015181;28;20053;-73
2021/07/18 07:43:18;;;;;;;5.95;3.20;;;;;;;;;;5012413;28;20025;-74
2021/07/18 07:45:44;;;;;;;6.22;3.35;;;;;;;;;;5009563;28;20084;-74
2021/07/18 07:48:10;;;;;;;4.35;2.88;;;;;;;;;;5010889;28;20114;-73
2021/07/18 07:50:36;;;;;;;7.75;3.22;;;;;;;;;;5009815;28;20583;-74
2021/07/18 07:53:03;;;;;;;11.73;3.60;;;;;;;;;;5010458;28;20053;-74
2021/07/18 07:55:30;;;;;;;7.35;4.28;;;;;;;;;;5017402;28;20921;-74
2021/07/18 07:57:56;;;;;;;11.88;4.80;;;;;;;;;;5017075;28;20025;-75
2021/07/18 08:00:22;;;;;;;8.57;4.22;;;;;;;;;;5015265;28;20582;-73
2021/07/18 08:02:49;;;;;;;9.15;5.03;;;;;;;;;;5009883;28;20080;-73
2021/07/18 08:05:16;;;;;;;7.35;3.42;;;;;;;;;;5023566;28;20029;-75
2021/07/18 08:07:42;;;;;;;6.70;4.00;;;;;;;;;;5010654;28;20026;-73
2021/07/18 08:10:10;;;;;;;9.18;4.53;;;;;;;;;;5007307;28;20030;-73
2021/07/18 08:12:36;;;;;;;8.40;4.10;;;;;;;;;;5010262;28;20564;-74
2021/07/18 08:15:03;;;;;;;8.70;4.10;;;;;;;;;;5017007;28;20021;-74
2021/07/18 08:17:29;;;;;;;14.88;4.90;;;;;;;;;;5016324;28;20045;-75
2021/07/18 08:19:55;;;;;;;15.85;4.57;;;;;;;;;;5014290;28;20136;-72
2021/07/18 08:22:21;;;;;;;8.93;4.38;;;;;;;;;;5009819;28;20025;-73
2021/07/18 08:24:54;;;;;;;12.05;4.78;;;;;;;;;;5019282;28;20416;-73
2021/07/18 08:27:20;;;;;;;18.50;5.55;;;;;;;;;;5019633;28;20029;-78
2021/07/18 08:29:47;;;;;;;9.65;4.70;;;;;;;;;;5017290;28;20041;-76
2021/07/18 08:32:13;;;;;;;10.73;3.85;;;;;;;;;;5022090;28;20033;-74
2021/07/18 08:34:39;;;;;;;7.00;3.42;;;;;;;;;;5021068;28;20117;-72
2021/07/18 08:37:06;;;;;;;8.10;3.50;;;;;;;;;;5021602;28;20039;-75
2021/07/18 08:39:32;;;;;;;5.93;3.22;;;;;;;;;;5017848;28;20115;-72
2021/07/18 08:41:59;;;;;;;8.13;4.50;;;;;;;;;;5020703;28;20033;-72
2021/07/18 08:44:26;;;;;;;6.57;4.18;;;;;;;;;;5020719;28;20065;-72
2021/07/18 08:46:52;;;;;;;7.05;4.28;;;;;;;;;;5021356;28;20059;-72
2021/07/18 08:49:18;;;;;;;9.63;4.18;;;;;;;;;;5021659;28;20056;-72
2021/07/18 08:51:44;;;;;;;6.78;3.58;;;;;;;;;;5022283;28;20725;-73
2021/07/18 08:54:11;;;;;;;8.85;3.50;;;;;;;;;;5011983;28;20017;-72
2021/07/18 08:56:38;;;;;;;11.90;4.40;;;;;;;;;;5019481;28;20031;-72
2021/07/18 08:59:05;;;;;;;4.55;3.50;;;;;;;;;;5015065;28;20116;-72
2021/07/18 09:01:32;;;;;;;9.68;3.75;;;;;;;;;;5017985;28;20037;-72
2021/07/18 09:03:58;;;;;;;8.00;3.90;;;;;;;;;;5017663;28;20628;-76
2021/07/18 09:06:38;;;;;;;12.32;4.22;;;;;;;;;;5011401;28;20238;-72
2021/07/18 09:09:06;;;;;;;7.30;4.40;;;;;;;;;;5016029;28;20393;-73
2021/07/18 09:11:32;;;;;;;10.80;4.05;;;;;;;;;;5011696;28;20033;-73
2021/07/18 09:14:00;;;;;;;9.25;3.67;;;;;;;;;;5010502;28;20620;-72
2021/07/18 09:16:27;;;;;;;6.05;3.08;;;;;;;;;;5007331;28;20489;-71
2021/07/18 09:18:53;;;;;;;7.05;2.83;;;;;;;;;;5016003;28;20099;-72
2021/07/18 09:21:19;;;;;;;6.00;2.90;;;;;;;;;;5016996;28;20040;-71
2021/07/18 09:23:46;;;;;;;10.40;3.58;;;;;;;;;;5004532;28;20026;-72
2021/07/18 09:26:18;;;;;;;7.55;3.05;;;;;;;;;;5005003;28;20022;-72
2021/07/18 09:28:44;;;;;;;7.15;3.17;;;;;;;;;;5013956;28;20022;-72
2021/07/18 09:31:29;;;;;;;7.95;3.08;;;;;;;;;;5008483;28;20042;-71
2021/07/18 09:34:14;;;;;;;6.75;2.95;;;;;;;;;;5006875;28;20025;-71
2021/07/18 09:36:41;;;;;;;5.97;2.78;;;;;;;;;;5015805;28;20026;-72
2021/07/18 09:39:08;;;;;;;6.20;3.22;;;;;;;;;;5010565;28;20018;-72
2021/07/18 09:41:35;;;;;;;7.70;3.47;;;;;;;;;;5010893;28;20038;-71
2021/07/18 09:44:01;;;;;;;7.97;3.30;;;;;;;;;;5006318;28;20034;-71
2021/07/18 09:46:36;;;;;;;7.00;3.22;;;;;;;;;;5014560;28;20069;-71
2021/07/18 09:49:03;;;;;;;4.15;2.72;;;;;;;;;;5009869;28;20510;-71
2021/07/18 09:51:31;;;;;;;6.65;3.30;;;;;;;;;;5019891;28;20083;-72
2021/07/18 09:54:10;;;;;;;5.68;3.55;;;;;;;;;;5008041;28;20022;-71
2021/07/18 09:56:37;;;;;;;7.70;3.03;;;;;;;;;;5008308;28;20034;-72
2021/07/18 09:59:05;;;;;;;6.22;2.95;;;;;;;;;;5011552;28;20054;-71
2021/07/18 10:01:32;;;;;;;5.80;2.72;;;;;;;;;;5007963;28;20385;-71
2021/07/18 10:03:58;;;;;;;5.10;2.90;;;;;;;;;;5011207;28;20136;-71
2021/07/18 10:06:25;;;;;;;7.47;3.22;;;;;;;;;;5007551;28;20032;-71
2021/07/18 10:08:58;;;;;;;9.75;3.63;;;;;;;;;;5009545;28;20033;-72
2021/07/18 10:11:26;;;;;;;5.00;3.60;;;;;;;;;;5019123;28;20474;-72
2021/07/18 10:13:53;;;;;;;5.22;3.13;;;;;;;;;;5012181;28;20107;-72
2021/07/18 10:16:20;;;;;;;5.43;2.92;;;;;;;;;;5010267;28;20002;-72
2021/07/18 10:18:47;;;;;;;6.97;3.20;;;;;;;;;;5006855;28;20057;-72
2021/07/18 10:21:17;;;;;;;7.25;3.35;;;;;;;;;;5006774;28;20113;-72
2021/07/18 10:23:43;;;;;;;5.88;3.30;;;;;;;;;;5016917;28;20706;-71
2021/07/18 10:26:16;;;;;;;5.38;2.92;;;;;;;;;;5011316;28;20374;-72
2021/07/18 10:28:43;;;;;;;4.07;3.13;;;;;;;;;;5019746;28;20050;-72
2021/07/18 10:31:28;;;;;;;4.40;2.90;;;;;;;;;;5017150;28;20037;-74
2021/07/18 10:33:55;;;;;;;4.68;2.80;;;;;;;;;;5017737;28;20045;-73
2021/07/18 10:36:23;;;;;;;6.45;3.05;;;;;;;;;;5013794;28;20025;-71
2021/07/18 10:38:50;;;;;;;5.38;3.22;;;;;;;;;;5016569;28;20394;-73
2021/07/18 10:41:16;;;;;;;4.32;2.90;;;;;;;;;;5019632;28;20083;-73
2021/07/18 10:43:46;;;;;;;4.70;3.03;;;;;;;;;;5020079;28;20036;-72
2021/07/18 10:46:13;;;;;;;4.95;2.72;;;;;;;;;;5015016;28;20033;-73
2021/07/18 10:48:47;;;;;;;7.15;2.88;;;;;;;;;;5020953;28;20021;-72
2021/07/18 10:51:33;;;;;;;4.00;2.72;;;;;;;;;;5020361;28;20482;-73
2021/07/18 10:54:08;;;;;;;4.28;2.95;;;;;;;;;;5016481;28;20439;-72
2021/07/18 10:56:44;;;;;;;5.07;2.83;;;;;;;;;;5019133;28;20108;-73
2021/07/18 10:59:30;;;;;;;4.47;2.72;;;;;;;;;;5019813;28;20030;-72
2021/07/18 11:02:16;;;;;;;4.80;2.80;;;;;;;;;;5017637;28;20148;-74
2021/07/18 11:04:48;;;;;;;3.63;2.92;;;;;;;;;;5019930;28;20029;-73
2021/07/18 11:07:23;;;;;;;5.57;2.90;;;;;;;;;;5017654;28;20045;-73
2021/07/18 11:09:56;;;;;;;5.80;3.25;;;;;;;;;;5018878;28;20506;-74
2021/07/18 11:12:23;;;;;;;9.43;3.45;;;;;;;;;;5019205;28;20441;-73
2021/07/18 11:14:49;;;;;;;5.40;2.53;;;;;;;;;;5019478;28;20029;-75
2021/07/18 11:17:26;;;;;;;6.28;3.15;;;;;;;;;;5019704;28;20139;-73
2021/07/18 11:19:56;;;;;;;4.78;2.90;;;;;;;;;;5017875;28;20631;-72
2021/07/18 11:22:42;;;;;;;6.95;3.53;;;;;;;;;;5019319;28;20041;-72
2021/07/18 11:25:09;;;;;;;6.03;3.20;;;;;;;;;;5015924;28;20094;-72
2021/07/18 11:27:36;;;;;;;3.95;2.78;;;;;;;;;;5018418;28;20033;-72
2021/07/18 11:30:04;;;;;;;4.25;2.88;;;;;;;;;;5022640;28;20478;-72
2021/07/18 11:32:31;;;;;;;6.13;3.17;;;;;;;;;;5023383;28;20052;-72
2021/07/18 11:34:58;;;;;;;3.55;2.75;;;;;;;;;;5023358;28;20029;-72
2021/07/18 11:37:25;;;;;;;4.03;2.92;;;;;;;;;;5021651;28;20040;-72
2021/07/18 11:39:51;;;;;;;4.63;2.60;;;;;;;;;;5023280;28;20036;-73
2021/07/18 11:42:19;;;;;;;4.95;2.97;;;;;;;;;;5023563;28;20162;-73
2021/07/18 11:44:46;;;;;;;6.57;3.95;;;;;;;;;;5023936;28;20051;-72
2021/07/18 11:47:14;;;;;;;4.00;2.80;;;;;;;;;;5022302;28;20033;-72
2021/07/18 11:49:42;;;;;;;3.08;2.60;;;;;;;;;;5024005;28;20537;-72
2021/07/18 11:52:08;;;;;;;6.85;3.47;;;;;;;;;;5020427;28;20029;-72
2021/07/18 11:54:36;;;;;;;4.78;2.65;;;;;;;;;;5023577;28;20502;-72
2021/07/18 11:57:04;;;;;;;4.20;2.92;;;;;;;;;;5023474;28;20053;-72
2021/07/18 11:59:30;;;;;;;4.22;3.50;;;;;;;;;;5021817;28;20025;-72
2021/07/18 12:01:57;;;;;;;4.28;3.05;;;;;;;;;;5022785;28;20041;-71
2021/07/18 12:04:27;;;;;;;6.00;2.85;;;;;;;;;;5023232;28;20036;-72
2021/07/18 12:06:58;;;;;;;10.18;2.65;;;;;;;;;;5021777;28;20068;-73
2021/07/18 12:09:43;;;;;;;7.57;2.80;;;;;;;;;;5022925;28;20524;-72
2021/07/18 12:12:11;;;;;;;3.53;2.92;;;;;;;;;;5023146;28;20053;-72
2021/07/18 12:14:37;;;;;;;4.38;2.70;;;;;;;;;;5021174;28;20029;-72
2021/07/18 12:17:05;;;;;;;3.75;2.72;;;;;;;;;;5022771;28;20037;-72
2021/07/18 12:19:32;;;;;;;6.07;2.50;;;;;;;;;;5022630;28;20360;-72
2021/07/18 12:22:00;;;;;;;4.80;2.53;;;;;;;;;;5022905;28;20164;-72
2021/07/18 12:24:34;;;;;;;3.45;2.70;;;;;;;;;;5020965;28;20026;-72
2021/07/18 12:27:00;;;;;;;4.82;3.03;;;;;;;;;;5021914;28;20053;-72
2021/07/18 12:29:28;;;;;;;4.53;2.75;;;;;;;;;;5021912;28;20025;-72
2021/07/18 12:31:55;;;;;;;5.90;2.40;;;;;;;;;;5021529;28;20537;-72
2021/07/18 12:34:26;;;;;;;3.40;2.22;;;;;;;;;;5022799;28;20064;-72
2021/07/18 12:36:53;;;;;;;3.72;2.60;;;;;;;;;;5020783;28;20033;-72
2021/07/18 12:39:19;;;;;;;6.82;3.03;;;;;;;;;;5022304;28;20021;-72
2021/07/18 12:41:46;;;;;;;8.63;2.63;;;;;;;;;;5021408;28;20029;-73
2021/07/18 12:44:16;;;;;;;5.63;2.55;;;;;;;;;;5022535;28;20132;-72
2021/07/18 12:46:44;;;;;;;3.88;2.42;;;;;;;;;;5020004;28;20032;-72
2021/07/18 12:49:11;;;;;;;2.92;2.45;;;;;;;;;;5022861;28;20025;-72
2021/07/18 12:51:37;;;;;;;5.65;2.72;;;;;;;;;;5020496;28;20065;-73
2021/07/18 12:54:03;;;;;;;3.83;2.63;;;;;;;;;;5022333;28;20509;-71
2021/07/18 12:56:30;;;;;;;4.43;2.63;;;;;;;;;;5016469;28;20029;-71
2021/07/18 12:58:56;;;;;;;5.40;2.53;;;;;;;;;;5010161;28;20025;-73
2021/07/18 13:01:32;;;;;;;20.75;3.42;;;;;;;;;;5010413;28;20134;-74
2021/07/18 13:04:06;;;;;;;10.88;2.80;;;;;;;;;;5006148;28;20098;-72
2021/07/18 13:06:47;;;;;;;3.83;2.90;;;;;;;;;;5006751;28;20381;-71
2021/07/18 13:09:40;;;;;;;7.18;3.50;;;;;;;;;;5020467;28;20029;-74
2021/07/18 13:12:06;;;;;;;6.18;2.60;;;;;;;;;;5013912;28;20040;-72
2021/07/18 13:14:32;;;;;;;6.18;2.90;;;;;;;;;;5015851;28;20116;-71
2021/07/18 13:17:05;;;;;;;4.20;3.13;;;;;;;;;;5012466;28;20116;-76
2021/07/18 13:19:31;;;;;;;4.45;2.83;;;;;;;;;;5008411;28;20033;-70
2021/07/18 13:22:02;;;;;;;3.72;2.50;;;;;;;;;;5016469;28;20029;-73
2021/07/18 13:24:32;;;;;;;4.47;3.00;;;;;;;;;;5007815;28;20083;-71
2021/07/18 13:27:11;;;;;;;4.25;2.63;;;;;;;;;;5007701;28;20124;-71
2021/07/18 13:29:39;;;;;;;4.53;2.55;;;;;;;;;;5017608;28;20048;-73
2021/07/18 13:32:10;;;;;;;6.07;2.78;;;;;;;;;;5008733;28;20065;-72
2021/07/18 13:34:36;;;;;;;3.20;2.50;;;;;;;;;;5021345;28;20113;-71
2021/07/18 13:37:02;;;;;;;4.50;2.80;;;;;;;;;;5021044;28;20033;-72
2021/07/18 13:39:29;;;;;;;3.42;2.45;;;;;;;;;;5021079;28;20049;-71
2021/07/18 13:42:08;;;;;;;3.92;2.90;;;;;;;;;;5015649;28;20061;-70
2021/07/18 13:44:34;;;;;;;6.93;2.88;;;;;;;;;;5020806;28;20251;-70
2021/07/18 13:47:00;;;;;;;4.38;2.50;;;;;;;;;;5020534;28;20021;-71
2021/07/18 13:49:26;;;;;;;3.85;2.92;;;;;;;;;;5020714;28;20025;-70
2021/07/18 13:51:54;;;;;;;3.45;2.83;;;;;;;;;;5018075;28;20109;-71
2021/07/18 13:54:20;;;;;;;5.10;2.92;;;;;;;;;;5018420;28;20101;-72
2021/07/18 13:56:46;;;;;;;3.35;2.58;;;;;;;;;;5021131;28;20545;-73
2021/07/18 13:59:12;;;;;;;5.57;3.30;;;;;;;;;;5020308;28;20727;-73
2021/07/18 14:01:39;;;;;;;4.43;2.70;;;;;;;;;;5020808;28;20389;-72
2021/07/18 14:04:05;;;;;;;3.90;2.83;;;;;;;;;;5021119;28;20033;-71
2021/07/18 14:06:31;;;;;;;7.43;3.10;;;;;;;;;;5019246;28;20071;-71
2021/07/18 14:08:57;;;;;;;7.25;3.03;;;;;;;;;;5020962;28;20026;-73
2021/07/18 14:11:24;;;;;;;4.10;3.50;;;;;;;;;;5021463;28;20137;-70
2021/07/18 14:13:50;;;;;;;4.10;3.30;;;;;;;;;;5021148;28;20084;-70
2021/07/18 14:16:16;;;;;;;5.18;3.45;;;;;;;;;;5021043;28;20021;-70
2021/07/18 14:18:42;;;;;;;7.35;3.40;;;;;;;;;;5019568;28;20155;-71
2021/07/18 14:21:08;;;;;;;4.60;3.03;;;;;;;;;;5020429;28;20124;-71
2021/07/18 14:23:34;;;;;;;4.60;3.20;;;;;;;;;;5021170;28;20025;-71
2021/07/18 14:26:01;;;;;;;3.60;3.25;;;;;;;;;;5020898;28;20026;-71
2021/07/18 14:28:28;;;;;;;3.78;3.28;;;;;;;;;;5020747;28;20671;-72
2021/07/18 14:30:55;;;;;;;4.38;3.25;;;;;;;;;;5019589;28;20022;-72
2021/07/18 14:33:21;;;;;;;5.20;3.40;;;;;;;;;;5020205;28;20090;-73
2021/07/18 14:35:48;;;;;;;4.30;3.10;;;;;;;;;;5020921;28;20329;-71
2021/07/18 14:38:15;;;;;;;4.93;3.50;;;;;;;;;;5019818;28;20033;-71
2021/07/18 14:40:41;;;;;;;7.57;4.10;;;;;;;;;;5020980;28;20900;-71